createdAt,value
2023-03-22T00:10:27.580Z,4.10
2023-03-22T00:12:56.101Z,4.10
2023-03-22T00:15:24.409Z,4.10
2023-03-22T00:17:52.598Z,4.20
2023-03-22T00:20:23.625Z,4.30
2023-03-22T00:22:52.066Z,4.20
2023-03-22T00:25:20.225Z,4.30
2023-03-22T00:27:49.960Z,4.40
2023-03-22T00:30:19.170Z,4.30
2023-03-22T00:32:47.303Z,4.30
2023-03-22T00:35:15.485Z,4.40
2023-03-22T00:37:44.946Z,4.40
2023-03-22T00:40:17.859Z,4.40
2023-03-22T00:42:46.334Z,4.50
2023-03-22T00:45:15.941Z,4.50
2023-03-22T00:47:44.088Z,4.70
2023-03-22T00:50:12.315Z,4.70
2023-03-22T00:52:40.559Z,4.50
2023-03-22T00:55:09.545Z,4.60
2023-03-22T00:57:37.893Z,4.70
2023-03-22T01:00:13.102Z,4.70
2023-03-22T01:02:43.591Z,4.70
2023-03-22T01:05:16.068Z,4.70
2023-03-22T01:07:44.858Z,4.60
2023-03-22T01:10:14.281Z,4.60
2023-03-22T01:12:42.375Z,4.50
2023-03-22T01:15:12.038Z,4.50
2023-03-22T01:17:41.917Z,4.50
2023-03-22T01:20:12.301Z,4.40
2023-03-22T01:22:40.471Z,4.30
2023-03-22T01:25:10.296Z,4.20
2023-03-22T01:27:38.739Z,4.10
2023-03-22T01:30:08.925Z,4.10
2023-03-22T01:32:38.510Z,4.10
2023-03-22T01:35:09.656Z,4.10
2023-03-22T01:37:37.948Z,4.10
2023-03-22T01:40:08.684Z,4.00
2023-03-22T01:42:37.017Z,3.90
2023-03-22T01:45:39.270Z,3.80
2023-03-22T01:48:18.352Z,3.80
2023-03-22T01:50:59.880Z,3.80
2023-03-22T01:53:28.387Z,3.70
2023-03-22T01:55:58.858Z,3.60
2023-03-22T01:58:27.635Z,3.70
2023-03-22T02:00:56.481Z,3.90
2023-03-22T02:03:37.957Z,4.10
2023-03-22T02:06:08.840Z,4.20
2023-03-22T02:08:36.991Z,4.20
2023-03-22T02:11:06.165Z,4.30
2023-03-22T02:14:03.591Z,4.40
2023-03-22T02:16:46.502Z,4.40
2023-03-22T02:19:56.663Z,4.10
2023-03-22T02:23:15.949Z,4.00
2023-03-22T02:26:22.792Z,4.00
2023-03-22T02:28:59.571Z,4.20
2023-03-22T02:32:11.834Z,4.30
2023-03-22T02:35:25.888Z,4.40
2023-03-22T02:38:37.714Z,4.60
2023-03-22T02:41:15.664Z,4.80
2023-03-22T02:44:01.635Z,5.10
2023-03-22T02:46:39.926Z,5.50
2023-03-22T02:49:21.149Z,5.60
2023-03-22T02:51:59.331Z,5.60
2023-03-22T02:54:38.395Z,5.60
2023-03-22T02:57:14.793Z,5.60
2023-03-22T02:59:46.166Z,5.70
2023-03-22T03:02:18.495Z,5.80
2023-03-22T03:04:53.455Z,5.90
2023-03-22T03:07:28.042Z,6.00
2023-03-22T03:09:56.500Z,6.00
2023-03-22T03:12:30.232Z,6.10
2023-03-22T03:14:58.493Z,6.20
2023-03-22T03:17:49.016Z,6.20
2023-03-22T03:20:31.055Z,6.30
2023-03-22T03:23:15.832Z,6.30
2023-03-22T03:25:59.130Z,6.40
2023-03-22T03:28:39.636Z,6.30
2023-03-22T03:31:27.078Z,6.10
2023-03-22T03:34:07.214Z,6.00
2023-03-22T03:36:41.323Z,5.80
2023-03-22T03:39:15.898Z,5.70
2023-03-22T03:41:49.452Z,5.60
2023-03-22T03:44:21.208Z,5.50
2023-03-22T03:46:50.339Z,5.70
2023-03-22T03:49:19.566Z,5.90
2023-03-22T03:51:51.784Z,6.20
2023-03-22T03:54:23.642Z,6.60
2023-03-22T03:56:52.049Z,6.90
2023-03-22T03:59:22.122Z,7.20
2023-03-22T04:01:51.865Z,7.30
2023-03-22T04:04:26.551Z,7.50
2023-03-22T04:06:56.871Z,7.70
2023-03-22T04:09:26.951Z,7.80
2023-03-22T04:11:55.844Z,7.90
2023-03-22T04:14:27.013Z,8.00
2023-03-22T04:16:56.160Z,8.00
2023-03-22T04:19:25.026Z,8.00
2023-03-22T04:21:54.002Z,8.00
2023-03-22T04:24:23.733Z,8.00
2023-03-22T04:26:52.487Z,8.00
2023-03-22T04:29:23.105Z,8.10
2023-03-22T04:31:54.056Z,8.00
2023-03-22T04:34:26.872Z,8.00
2023-03-22T04:36:55.224Z,8.00
2023-03-22T04:39:23.418Z,8.00
2023-03-22T04:41:53.543Z,8.00
2023-03-22T04:44:23.561Z,8.00
2023-03-22T04:47:00.598Z,8.00
2023-03-22T04:49:29.968Z,8.00
2023-03-22T04:52:00.853Z,8.10
2023-03-22T04:54:29.467Z,8.10
2023-03-22T04:56:59.032Z,8.00
2023-03-22T04:59:27.762Z,8.00
2023-03-22T05:01:59.947Z,8.00
2023-03-22T05:04:32.415Z,8.10
2023-03-22T05:07:01.417Z,8.10
2023-03-22T05:09:29.657Z,8.20
2023-03-22T05:11:57.859Z,8.20
2023-03-22T05:14:26.137Z,8.30
2023-03-22T05:16:54.243Z,8.40
2023-03-22T05:19:24.807Z,8.40
2023-03-22T05:21:58.325Z,8.40
2023-03-22T05:24:27.013Z,8.50
2023-03-22T05:26:56.164Z,8.50
2023-03-22T05:29:24.536Z,8.70
2023-03-22T05:31:53.025Z,8.70
2023-03-22T05:34:22.030Z,8.70
2023-03-22T05:36:52.418Z,8.80
2023-03-22T05:39:20.910Z,8.90
2023-03-22T05:41:49.097Z,9.00
2023-03-22T05:44:17.137Z,9.20
2023-03-22T05:46:45.375Z,9.30
2023-03-22T05:49:13.518Z,9.30
2023-03-22T05:51:42.664Z,9.30
2023-03-22T05:54:12.827Z,9.40
2023-03-22T05:56:40.943Z,9.40
2023-03-22T05:59:09.090Z,9.40
2023-03-22T06:01:37.545Z,9.40
2023-03-22T06:04:06.009Z,9.50
2023-03-22T06:06:34.233Z,9.60
2023-03-22T06:09:16.037Z,9.70
2023-03-22T06:11:46.829Z,9.70
2023-03-22T06:14:14.875Z,9.80
2023-03-22T06:16:42.995Z,9.90
2023-03-22T06:19:11.125Z,10.00
2023-03-22T06:21:39.212Z,10.10
2023-03-22T06:24:07.903Z,10.10
2023-03-22T06:26:36.170Z,10.20
2023-03-22T06:29:05.894Z,10.20
2023-03-22T06:31:34.037Z,10.30
2023-03-22T06:34:02.144Z,10.30
2023-03-22T06:36:31.220Z,10.30
2023-03-22T06:39:01.008Z,10.40
2023-03-22T06:41:29.108Z,10.40
2023-03-22T06:43:57.187Z,10.40
2023-03-22T06:46:26.756Z,10.50
2023-03-22T06:48:55.026Z,10.50
2023-03-22T06:51:23.151Z,10.50
2023-03-22T06:53:52.141Z,10.50
2023-03-22T06:56:20.316Z,10.50
2023-03-22T06:58:49.087Z,10.60
2023-03-22T07:01:17.169Z,10.70
2023-03-22T07:03:46.688Z,10.70
2023-03-22T07:06:14.828Z,10.70
2023-03-22T07:08:43.070Z,10.80
2023-03-22T07:11:11.411Z,10.80
2023-03-22T07:13:39.631Z,10.80
2023-03-22T07:16:09.784Z,10.80
2023-03-22T07:18:37.991Z,10.80
2023-03-22T07:21:08.127Z,10.80
2023-03-22T07:23:36.380Z,10.90
2023-03-22T07:26:04.997Z,10.90
2023-03-22T07:28:33.495Z,10.90
2023-03-22T07:31:02.519Z,11.00
2023-03-22T07:33:31.353Z,11.00
2023-03-22T07:36:00.098Z,11.10
2023-03-22T07:38:30.462Z,11.10
2023-03-22T07:40:58.887Z,11.30
2023-03-22T07:43:30.148Z,11.50
2023-03-22T07:46:00.112Z,11.70
2023-03-22T07:48:31.715Z,11.90
2023-03-22T07:51:00.098Z,12.00
2023-03-22T07:53:30.031Z,12.20
2023-03-22T07:55:58.167Z,12.40
2023-03-22T07:58:26.600Z,12.50
2023-03-22T08:00:54.701Z,12.40
2023-03-22T08:03:23.281Z,12.40
2023-03-22T08:05:51.782Z,12.30
2023-03-22T08:08:20.614Z,12.20
2023-03-22T08:10:53.012Z,12.00
2023-03-22T08:13:21.346Z,12.00
2023-03-22T08:15:49.728Z,11.90
2023-03-22T08:18:18.154Z,11.90
2023-03-22T08:20:51.042Z,12.00
2023-03-22T08:23:40.352Z,12.00
2023-03-22T08:26:27.204Z,12.10
2023-03-22T08:29:00.100Z,12.30
2023-03-22T08:31:30.709Z,12.30
2023-03-22T08:34:10.134Z,12.40
2023-03-22T08:36:39.472Z,12.40
2023-03-22T08:39:11.048Z,12.60
2023-03-22T08:41:48.444Z,13.10
2023-03-22T08:44:22.380Z,13.60
2023-03-22T08:46:57.115Z,13.90
2023-03-22T08:49:26.542Z,14.30
2023-03-22T08:51:57.683Z,14.50
2023-03-22T08:54:30.505Z,14.40
2023-03-22T08:57:16.627Z,14.10
2023-03-22T08:59:50.778Z,14.20
2023-03-22T09:02:22.533Z,14.30
2023-03-22T09:04:51.327Z,14.30
2023-03-22T09:07:21.398Z,14.30
2023-03-22T09:09:50.093Z,14.60
2023-03-22T09:12:19.664Z,14.60
2023-03-22T09:14:49.147Z,14.30
2023-03-22T09:17:21.259Z,14.00
2023-03-22T09:19:53.938Z,13.90
2023-03-22T09:22:28.436Z,13.90
2023-03-22T09:25:01.946Z,13.90
2023-03-22T09:27:32.564Z,14.10
2023-03-22T09:30:01.268Z,14.20
2023-03-22T09:32:31.102Z,14.30
2023-03-22T09:34:59.582Z,14.60
2023-03-22T09:37:30.609Z,14.70
2023-03-22T09:39:58.862Z,14.70
2023-03-22T09:42:39.761Z,14.90
2023-03-22T09:45:16.712Z,14.80
2023-03-22T09:47:50.106Z,14.50
2023-03-22T09:50:23.719Z,14.50
2023-03-22T09:52:54.544Z,14.40
2023-03-22T09:55:41.538Z,14.30
2023-03-22T09:58:25.385Z,14.40
2023-03-22T10:01:06.124Z,14.30
2023-03-22T10:04:11.072Z,14.20
2023-03-22T10:06:40.003Z,14.20
2023-03-22T10:09:15.619Z,14.10
2023-03-22T10:11:50.251Z,14.10
2023-03-22T10:14:40.346Z,14.00
2023-03-22T10:17:15.917Z,13.90
2023-03-22T10:19:55.128Z,14.00
2023-03-22T10:22:30.770Z,14.20
2023-03-22T10:25:02.627Z,14.50
2023-03-22T10:27:34.026Z,14.50
2023-03-22T10:30:19.477Z,14.40
2023-03-22T10:32:58.058Z,14.40
2023-03-22T10:35:27.134Z,14.40
2023-03-22T10:37:59.059Z,14.70
2023-03-22T10:40:35.350Z,15.00
2023-03-22T10:43:12.927Z,15.50
2023-03-22T10:45:44.224Z,15.50
2023-03-22T10:48:23.552Z,14.90
2023-03-22T10:50:52.981Z,14.80
2023-03-22T10:53:36.139Z,15.10
2023-03-22T10:56:05.466Z,15.10
2023-03-22T10:58:46.678Z,15.30
2023-03-22T11:01:28.017Z,15.60
2023-03-22T11:04:01.724Z,15.40
2023-03-22T11:06:36.537Z,15.60
2023-03-22T11:09:16.199Z,15.60
2023-03-22T11:11:53.291Z,15.80
2023-03-22T11:14:28.984Z,15.70
2023-03-22T11:17:12.641Z,15.70
2023-03-22T11:19:54.389Z,15.80
2023-03-22T11:22:31.973Z,15.90
2023-03-22T11:25:01.573Z,16.10
2023-03-22T11:27:34.280Z,16.20
2023-03-22T11:30:21.418Z,15.90
2023-03-22T11:33:03.321Z,15.90
2023-03-22T11:35:32.889Z,16.50
2023-03-22T11:38:02.710Z,16.40
2023-03-22T11:40:34.644Z,16.50
2023-03-22T11:43:21.101Z,16.70
2023-03-22T11:45:56.378Z,17.10
2023-03-22T11:48:30.253Z,17.60
2023-03-22T11:51:09.671Z,17.60
2023-03-22T11:53:42.869Z,17.40
2023-03-22T11:56:17.991Z,17.30
2023-03-22T11:59:00.144Z,17.80
2023-03-22T12:01:49.991Z,17.50
2023-03-22T12:04:25.490Z,17.30
2023-03-22T12:06:57.842Z,17.80
2023-03-22T12:09:39.123Z,18.00
2023-03-22T12:12:17.900Z,17.70
2023-03-22T12:14:53.402Z,17.50
2023-03-22T12:17:33.628Z,17.50
2023-03-22T12:20:17.228Z,17.30
2023-03-22T12:22:53.258Z,17.20
2023-03-22T12:25:26.174Z,17.00
2023-03-22T12:27:58.546Z,17.10
2023-03-22T12:30:31.318Z,17.80
2023-03-22T12:33:06.705Z,18.30
2023-03-22T12:35:43.573Z,18.50
2023-03-22T12:38:28.062Z,18.50
2023-03-22T12:41:02.708Z,19.10
2023-03-22T12:43:47.779Z,18.90
2023-03-22T12:46:21.635Z,18.60
2023-03-22T12:48:54.564Z,18.40
2023-03-22T12:51:24.429Z,18.70
2023-03-22T12:53:57.212Z,19.00
2023-03-22T12:56:33.213Z,19.30
2023-03-22T12:59:07.294Z,19.00
2023-03-22T13:01:45.175Z,18.80
2023-03-22T13:04:48.816Z,19.50
2023-03-22T13:07:38.172Z,19.60
2023-03-22T13:10:57.342Z,19.70
2023-03-22T13:13:47.841Z,19.80
2023-03-22T13:16:24.645Z,19.70
2023-03-22T13:19:03.584Z,19.70
2023-03-22T13:21:38.844Z,19.10
2023-03-22T13:24:24.856Z,18.50
2023-03-22T13:26:55.428Z,18.50
2023-03-22T13:29:26.545Z,18.20
2023-03-22T13:31:59.936Z,18.20
2023-03-22T13:34:40.849Z,18.20
2023-03-22T13:37:25.324Z,17.90
2023-03-22T13:39:57.016Z,17.50
2023-03-22T13:42:41.046Z,17.30
2023-03-22T13:45:31.497Z,17.00
2023-03-22T13:48:10.935Z,17.00
2023-03-22T13:50:40.766Z,16.80
2023-03-22T13:53:22.677Z,16.70
2023-03-22T13:56:07.375Z,16.50
2023-03-22T13:58:52.995Z,16.40
2023-03-22T14:01:30.408Z,16.50
2023-03-22T14:04:03.436Z,16.50
2023-03-22T14:06:36.736Z,16.60
2023-03-22T14:09:19.637Z,16.70
2023-03-22T14:11:57.379Z,16.80
2023-03-22T14:14:33.649Z,16.70
2023-03-22T14:17:06.691Z,16.70
2023-03-22T14:19:37.691Z,16.70
